• Join FlightAware (Why Join?)
  • Login
  • US Flag 
06:15AM EDT


 

Airport Tracker/Info


-or-


 

Live Flight TrackerFlight Track Log ✈ N9577Y ✈ 21-Apr-2013 ✈ KTPF - KPNS

Flight Track Log - Related Links

Times and Time Zones

All times are in EDT time to prevent confusion due to time zone crossing. See the N9577Y flight status page for this flight to view local times or setup timezone preferences in your user account.

Time Position Orientation Groundspeed Altitude Reporting Facility
EDT Latitude Longitude Course Direction KTS MPH feet Rate Location/Type
05:44PM 27.9167 -82.3500 41° Northeast 105 121 2,400  Level Tampa TRACON
05:45PM 27.9333 -82.3333 41° Northeast 103 119 2,900 540 Climbing Tampa TRACON
05:45PM 27.9500 -82.3167 41° Northeast 113 130 3,300 420 Climbing Tampa TRACON
05:46PM 27.9833 -82.3167 360° North 123 142 3,800 360 Climbing Tampa TRACON
05:47PM 28.0167 -82.3000 24° Northeast 127 146 4,100 60 Climbing Tampa TRACON
05:49PM 28.0667 -82.2833 16° North 158 182 4,000 -60 Descending Tampa TRACON
05:50PM 28.1167 -82.2667 16° North 163 188 4,000  Level Tampa TRACON
05:51PM 28.1500 -82.2500 24° Northeast 159 183 4,000 60 Level Tampa TRACON
05:52PM 28.2000 -82.2500 360° North 151 174 4,200 300 Climbing Tampa TRACON
05:53PM 28.2333 -82.2500 360° North 136 157 4,700 480 Climbing Tampa TRACON
05:54PM 28.2667 -82.2667 336° Northwest 136 157 5,200 480 Climbing Tampa TRACON
05:54PM 28.3000 -82.2833 336° Northwest 133 153 5,700 360 Climbing Tampa TRACON
05:56PM 28.3333 -82.3167 319° Northwest 136 157 6,000 120 Climbing Tampa TRACON
05:56PM 28.3667 -82.3333 336° Northwest 158 182 6,000 -60 Level Tampa TRACON
05:57PM 28.4000 -82.3667 319° Northwest 165 190 5,900 60 Descending Tampa TRACON
05:58PM 28.4333 -82.4000 319° Northwest 164 189 6,200 300 Climbing Tampa TRACON
05:59PM 28.4667 -82.4333 319° Northwest 145 167 6,600 360 Climbing Tampa TRACON
06:00PM 28.5000 -82.4500 336° Northwest 136 157 6,900 300 Climbing Tampa TRACON
06:01PM 28.5333 -82.4833 319° Northwest 132 152 7,300 420 Climbing Tampa TRACON
06:03PM 28.5500 -82.5000 319° Northwest 129 148 7,900 540 Climbing Tampa TRACON
06:04PM 28.5833 -82.5333 319° Northwest 125 144 8,400 540 Climbing Tampa TRACON
06:04PM 28.6086 -82.5567 321° Northwest 125 144 9,000 540 Climbing Jacksonville Center
06:05PM 28.6317 -82.5781 321° Northwest 186 214 9,500 480 Climbing Jacksonville Center
06:06PM 28.6567 -82.6064 315° West 152 175 10,000 540 Climbing Jacksonville Center
06:07PM 28.6672 -82.6417 289° West 125 144 10,600 480 Climbing Jacksonville Center
06:08PM 28.6944 -82.6678 320° Northwest 118 136 11,000 420 Climbing Jacksonville Center
06:09PM 28.7194 -82.6983 313° West 123 142 11,500 540 Climbing Jacksonville Center
06:10PM 28.7444 -82.7269 315° West 129 148 12,100 1,200 Climbing Jacksonville Center
06:11PM 28.7697 -82.7553 316° Northwest 129 148 14,000 480 Climbing Jacksonville Center
06:12PM 28.7969 -82.7836 318° Northwest 129 148 13,100 -300 Descending Jacksonville Center
06:13PM 28.8239 -82.8119 317° Northwest 134 154 13,500 420 Climbing Jacksonville Center
06:14PM 28.8533 -82.8403 320° Northwest 134 154 14,000 240 Climbing Jacksonville Center
06:15PM 28.8803 -82.8736 313° West 141 162 14,000  Level Jacksonville Center
06:16PM 28.9117 -82.9092 315° West 147 169 14,000  Level Jacksonville Center
06:17PM 28.9472 -82.9472 317° Northwest 158 182 14,000  Level Jacksonville Center
06:18PM 28.9806 -82.9875 313° West 168 193 14,000  Level Jacksonville Center
06:19PM 29.0222 -83.0231 323° Northwest 173 199 14,000  Level Jacksonville Center
06:20PM 29.0597 -83.0611 318° Northwest 178 205 14,000  Level Jacksonville Center
06:21PM 29.0953 -83.0994 317° Northwest 178 205 14,000  Level Jacksonville Center
06:22PM 29.1306 -83.1422 313° West 178 205 14,000  Level Jacksonville Center
06:23PM 29.1639 -83.1828 313° West 172 198 14,000  Level Jacksonville Center
06:24PM 29.2014 -83.2233 317° Northwest 172 198 14,000  Level Jacksonville Center
06:25PM 29.2347 -83.2639 313° West 172 198 14,000  Level Jacksonville Center
06:26PM 29.2700 -83.3019 317° Northwest 172 198 14,000  Level Jacksonville Center
06:27PM 29.3053 -83.3403 317° Northwest 172 198 14,000  Level Jacksonville Center
06:28PM 29.3428 -83.3808 317° Northwest 172 198 14,000  Level Jacksonville Center
06:29PM 29.3781 -83.4144 320° Northwest 172 198 14,000  Level Jacksonville Center
06:30PM 29.4136 -83.4506 319° Northwest 167 192 14,000  Level Jacksonville Center
06:31PM 29.4322 -83.4958 295° West 167 192 14,000  Level Jacksonville Center
06:32PM 29.4381 -83.5436 278° West 156 180 14,000  Level Jacksonville Center
06:33PM 29.4544 -83.5914 292° West 156 180 14,000  Level Jacksonville Center
06:34PM 29.4731 -83.6392 294° West 156 180 14,000  Level Jacksonville Center
06:35PM 29.4917 -83.6847 295° West 162 186 14,000 -60 Level Jacksonville Center
06:36PM 29.5100 -83.7325 294° West 167 192 13,900  Descending Jacksonville Center
06:37PM 29.5264 -83.7806 291° West 167 192 14,000 -60 Climbing Jacksonville Center
06:38PM 29.5367 -83.8283 284° West 162 186 13,800 -120 Descending Jacksonville Center
06:39PM 29.5467 -83.8761 284° West 162 186 13,800 120 Level Jacksonville Center
06:40PM 29.5589 -83.9264 286° West 162 186 14,100 120 Climbing Jacksonville Center
06:41PM 29.5689 -83.9742 284° West 162 186 14,100 -60 Level Jacksonville Center
06:42PM 29.5831 -84.0244 288° West 162 186 14,000 -120 Descending Jacksonville Center
06:43PM 29.5908 -84.0747 280° West 162 186 13,900  Descending Jacksonville Center
06:44PM 29.6114 -84.1228 296° West 162 186 14,000 60 Climbing Jacksonville Center
06:45PM 29.6192 -84.1708 281° West 162 186 14,100  Climbing Jacksonville Center
06:46PM 29.6269 -84.2211 280° West 162 186 14,100 -60 Level Jacksonville Center
06:47PM 29.6347 -84.2714 280° West 162 186 14,000  Descending Jacksonville Center
06:48PM 29.6428 -84.3167 282° West 157 181 14,100 -60 Climbing Jacksonville Center
06:49PM 29.6506 -84.3600 282° West 151 174 13,900 -60 Descending Jacksonville Center
06:50PM 29.6625 -84.4078 286° West 151 174 14,000  Climbing Jacksonville Center
06:51PM 29.6683 -84.4511 279° West 151 174 14,000  Level Jacksonville Center
06:52PM 29.6781 -84.4942 285° West 146 168 14,000  Level Jacksonville Center
06:53PM 29.6900 -84.5422 286° West 146 168 14,000  Level Jacksonville Center
06:54PM 29.7019 -84.5856 288° West 146 168 14,000 -60 Level Jacksonville Center
06:55PM 29.7139 -84.6286 288° West 146 168 13,900  Descending Jacksonville Center
06:56PM 29.7281 -84.6719 291° West 146 168 14,000  Climbing Jacksonville Center
06:57PM 29.7419 -84.7225 288° West 151 174 14,000 -60 Level Jacksonville Center
06:58PM 29.7539 -84.7681 287° West 151 174 13,900  Descending Jacksonville Center
06:59PM 29.7656 -84.8161 286° West 151 174 14,000 60 Climbing Jacksonville Center
07:00PM 29.7775 -84.8619 287° West 151 174 14,100 360 Climbing Jacksonville Center
07:01PM 29.7914 -84.9006 293° West 141 162 14,800 60 Climbing Jacksonville Center
07:02PM 29.8053 -84.9439 290° West 141 162 14,300 -480 Descending Jacksonville Center
07:03PM 29.8211 -84.9944 290° West 151 174 13,900 -300 Descending Jacksonville Center
07:04PM 29.8350 -85.0425 288° West 162 186 13,800 -60 Descending Jacksonville Center
07:05PM 29.8467 -85.0883 286° West 162 186 13,800  Level Jacksonville Center
07:06PM 29.8586 -85.1294 289° West 150 173 13,900 60 Climbing Jacksonville Center
07:07PM 29.8703 -85.1753 286° West 150 173 14,000  Climbing Jacksonville Center
07:08PM 29.8822 -85.2161 289° West 150 173 14,000  Level Jacksonville Center
07:09PM 29.8939 -85.2619 286° West 150 173 14,000  Level Jacksonville Center
07:10PM 29.9056 -85.3053 287° West 150 173 14,000  Level Jacksonville Center
07:11PM 29.9172 -85.3511 286° West 150 173 14,000  Level Jacksonville Center
07:12PM 29.9289 -85.3947 287° West 150 173 14,000  Level Jacksonville Center
07:13PM 29.9406 -85.4406 286° West 150 173 14,000  Level Jacksonville Center
07:14PM 29.9519 -85.4864 286° West 150 173 14,000  Level Jacksonville Center
07:15PM 29.9656 -85.5369 287° West 150 173 14,000  Level Jacksonville Center
07:16PM 29.9792 -85.5853 288° West 150 173 14,000  Level Jacksonville Center
07:17PM 29.9908 -85.6336 286° West 156 180 14,000  Level Jacksonville Center
07:18PM 30.0003 -85.6722 286° West 156 180 14,000  Level Jacksonville Center
07:19PM 30.0139 -85.7256 286° West 161 185 14,000 -60 Level Jacksonville Center
07:20PM 30.0253 -85.7714 286° West 161 185 13,900  Descending Jacksonville Center
07:21PM 30.0367 -85.8172 286° West 161 185 14,000  Climbing Jacksonville Center
07:22PM 30.0503 -85.8633 289° West 154 177 13,900  Descending Jacksonville Center
07:23PM 30.0617 -85.9067 287° West 149 171 14,000  Climbing Jacksonville Center
07:24PM 30.0753 -85.9503 290° West 149 171 14,000 -420 Level Jacksonville Center
07:26PM 30.0931 -86.0046 288° West  Level Estimated
07:33PM 30.2447 -86.3417 288° West  Level FlightAware Approximate
07:34PM 30.2592 -86.3946 288° West  Level FlightAware Approximate
07:35PM 30.2736 -86.4474 288° West  Level FlightAware Approximate
07:36PM 30.2873 -86.5005 285° West  Level FlightAware Approximate
07:36PM 30.2144 -86.5389 285° West 185 213 9,500  Level Jacksonville Center
07:36PM 30.2236 -86.5778 285° West 187 215 9,100 -660 Descending Jacksonville Center
07:37PM 30.2995 -86.5541 285° West  Level FlightAware Approximate
07:37PM 30.2347 -86.6261 285° West 188 216 8,500  Level Jacksonville Center
07:38PM 30.3117 -86.6077 285° West  Level FlightAware Approximate
07:38PM 30.2553 -86.7111 286° West 188 216 7,600  Level Jacksonville Center
07:39PM 30.3239 -86.6613 285° West  Level FlightAware Approximate
07:39PM 30.2722 -86.7719 288° West 190 219 6,800  Level Jacksonville Center
07:40PM 30.3361 -86.7150 285° West  Level FlightAware Approximate
07:41PM 30.3483 -86.7686 285° West  Level FlightAware Approximate
07:41PM 30.2956 -86.8306 295° West 201 231 6,100  Level Jacksonville Center
07:41PM 30.3089 -86.8719 290° West 196 226 5,900 -600 Descending Jacksonville Center
07:42PM 30.3319 -86.9356 293° West 195 224 5,100 -660 Descending Jacksonville Center
07:43PM 30.3531 -86.9894 294° West 199 229 4,600 -660 Descending Jacksonville Center
07:44PM 30.3761 -87.0506 294° West 195 224 3,800 -840 Descending Jacksonville Center
07:45PM 30.3889 -87.1042 285° West 194 223 2,900 -780 Descending Jacksonville Center
07:46PM 30.4358 -87.1350 330° Northwest 179 206 2,300 -600 Descending Jacksonville Center
07:47PM 30.4789 -87.1586 335° Northwest 179 206 1,700 -840 Descending Jacksonville Center
07:48PM 30.5008 -87.1958 304° West 133 153 600 -1,140 Descending Jacksonville Center
07:50PM 30.4734 -87.1866 162° South  Level Estimated
07:57PM 30.4734 -87.1866 283° West  Level Estimated
07:58PM 30.4734 -87.1866 283° West  Level Estimated